Terminal Aerodrome Forecast
Issued by NWS

Home | Current Version | Previous Version | Text Only | Print | Product List | Glossary On
Versions: 1 2 3 4 5 6 7 8 9 10 11 12 13 14 15 16 17 18
661
FTUS43 KAPX 231723
TAFPLN
TAF
KPLN 231723Z 2318/2418 31010G20KT P6SM SCT025 BKN040
     FM232200 32012G20KT P6SM FEW030 SCT250
     FM240100 32008KT P6SM SCT250
     FM240900 34007KT P6SM BKN050=

USA.gov is the U.S. government's official web portal to all federal, state and local government web resources and services.